createdAt,value
2018-05-12T00:01:40.702Z,13.90
2018-05-12T00:04:06.907Z,13.80
2018-05-12T00:06:33.888Z,14.00
2018-05-12T00:09:00.144Z,14.00
2018-05-12T00:11:26.352Z,14.00
2018-05-12T00:13:52.781Z,13.90
2018-05-12T00:16:19.048Z,13.90
2018-05-12T00:18:45.262Z,13.90
2018-05-12T00:21:11.470Z,13.90
2018-05-12T00:23:38.472Z,13.80
2018-05-12T00:26:04.711Z,13.80
2018-05-12T00:28:32.060Z,13.70
2018-05-12T00:30:58.272Z,13.70
2018-05-12T00:33:24.578Z,13.80
2018-05-12T00:35:50.964Z,13.80
2018-05-12T00:38:17.920Z,13.60
2018-05-12T00:40:44.148Z,13.60
2018-05-12T00:43:11.114Z,13.70
2018-05-12T00:45:37.379Z,13.70
2018-05-12T00:48:03.671Z,13.70
2018-05-12T00:50:29.942Z,13.60
2018-05-12T00:52:56.149Z,13.60
2018-05-12T00:55:22.422Z,13.60
2018-05-12T00:57:49.555Z,13.70
2018-05-12T01:00:15.791Z,13.70
2018-05-12T01:02:41.997Z,13.80
2018-05-12T01:05:08.216Z,13.80
2018-05-12T01:07:34.421Z,13.80
2018-05-12T01:10:00.637Z,13.80
2018-05-12T01:12:27.613Z,13.70
2018-05-12T01:14:54.377Z,13.70
2018-05-12T01:17:20.589Z,13.80
2018-05-12T01:19:46.799Z,13.80
2018-05-12T01:22:13.062Z,13.80
2018-05-12T01:24:39.280Z,13.80
2018-05-12T01:27:05.508Z,13.70
2018-05-12T01:29:31.904Z,13.70
2018-05-12T01:31:58.909Z,13.70
2018-05-12T01:34:25.198Z,13.70
2018-05-12T01:36:51.558Z,13.70
2018-05-12T01:39:17.765Z,13.70
2018-05-12T01:41:45.380Z,13.70
2018-05-12T01:44:12.409Z,13.70
2018-05-12T01:46:38.664Z,13.70
2018-05-12T01:49:04.872Z,13.70
2018-05-12T01:51:31.085Z,13.70
2018-05-12T01:53:57.423Z,13.70
2018-05-12T01:56:23.760Z,13.70
2018-05-12T01:58:50.003Z,13.70
2018-05-12T02:01:16.236Z,13.70
2018-05-12T02:03:42.612Z,13.70
2018-05-12T02:06:09.028Z,13.70
2018-05-12T02:08:35.256Z,13.70
2018-05-12T02:11:01.485Z,13.70
2018-05-12T02:13:28.431Z,13.70
2018-05-12T02:15:54.657Z,13.70
2018-05-12T02:18:21.631Z,13.70
2018-05-12T02:20:47.848Z,13.70
2018-05-12T02:23:14.505Z,13.60
2018-05-12T02:25:40.763Z,13.60
2018-05-12T02:28:06.977Z,13.60
2018-05-12T02:30:33.253Z,13.70
2018-05-12T02:32:59.453Z,13.70
2018-05-12T02:35:25.671Z,13.70
2018-05-12T02:37:52.061Z,13.70
2018-05-12T02:40:18.742Z,13.70
2018-05-12T02:42:44.959Z,13.70
2018-05-12T02:45:11.205Z,13.70
2018-05-12T02:47:37.420Z,13.70
2018-05-12T02:50:03.657Z,13.70
2018-05-12T02:52:29.900Z,13.70
2018-05-12T02:54:56.112Z,13.80
2018-05-12T02:57:22.315Z,13.80
2018-05-12T02:59:48.575Z,13.80
2018-05-12T03:02:14.823Z,13.70
2018-05-12T03:04:41.057Z,13.60
2018-05-12T03:07:07.264Z,13.60
2018-05-12T03:09:33.893Z,13.70
2018-05-12T03:12:00.114Z,13.70
2018-05-12T03:14:26.324Z,13.70
2018-05-12T03:16:52.598Z,13.70
2018-05-12T03:19:18.820Z,13.70
2018-05-12T03:21:45.047Z,13.70
2018-05-12T03:24:11.289Z,13.80
2018-05-12T03:26:37.504Z,13.80
2018-05-12T03:29:03.728Z,13.80
2018-05-12T03:31:30.074Z,13.80
2018-05-12T03:33:56.302Z,13.80
2018-05-12T03:36:22.548Z,13.80
2018-05-12T03:38:48.743Z,13.80
2018-05-12T03:41:14.990Z,13.80
2018-05-12T03:43:41.196Z,13.80
2018-05-12T03:46:07.405Z,13.80
2018-05-12T03:48:33.765Z,13.80
2018-05-12T03:51:00.010Z,13.80
2018-05-12T03:53:26.244Z,13.80
2018-05-12T03:55:52.572Z,13.80
2018-05-12T03:58:18.799Z,13.90
2018-05-12T04:00:45.040Z,13.90
2018-05-12T04:03:11.283Z,13.90
2018-05-12T04:05:50.341Z,13.90
2018-05-12T04:08:28.953Z,13.90
2018-05-12T04:11:08.226Z,13.80
2018-05-12T04:13:34.445Z,13.80
2018-05-12T04:16:00.695Z,13.90
2018-05-12T04:18:26.943Z,13.90
2018-05-12T04:20:54.126Z,13.90
2018-05-12T04:23:20.260Z,13.80
2018-05-12T04:25:46.492Z,13.90
2018-05-12T04:28:12.892Z,13.90
2018-05-12T04:30:39.929Z,14.00
2018-05-12T04:33:06.132Z,13.90
2018-05-12T04:35:32.371Z,14.00
2018-05-12T04:37:58.569Z,14.00
2018-05-12T04:40:24.769Z,14.00
2018-05-12T04:42:51.430Z,14.10
2018-05-12T04:45:18.381Z,14.10
2018-05-12T04:47:44.624Z,14.10
2018-05-12T04:50:10.832Z,14.10
2018-05-12T04:52:37.017Z,14.10
2018-05-12T04:55:04.332Z,14.10
2018-05-12T04:57:30.541Z,14.10
2018-05-12T04:59:56.761Z,14.10
2018-05-12T05:02:22.979Z,14.10
2018-05-12T05:04:49.446Z,14.10
2018-05-12T05:07:26.541Z,14.10
2018-05-12T05:09:52.893Z,14.20
2018-05-12T05:12:19.109Z,14.20
2018-05-12T05:14:45.329Z,14.20
2018-05-12T05:17:11.578Z,14.20
2018-05-12T05:19:37.795Z,14.20
2018-05-12T05:22:04.041Z,14.20
2018-05-12T05:24:30.343Z,14.20
2018-05-12T05:26:56.576Z,14.20
2018-05-12T05:29:22.774Z,14.20
2018-05-12T05:31:49.042Z,14.30
2018-05-12T05:34:15.253Z,14.30
2018-05-12T05:36:41.517Z,14.40
2018-05-12T05:39:07.720Z,14.40
2018-05-12T05:41:34.045Z,14.40
2018-05-12T05:44:00.965Z,14.40
2018-05-12T05:46:27.153Z,14.40
2018-05-12T05:48:54.241Z,14.40
2018-05-12T05:51:20.440Z,14.40
2018-05-12T05:53:47.415Z,14.50
2018-05-12T05:56:13.659Z,14.50
2018-05-12T05:58:42.119Z,14.50
2018-05-12T06:01:09.765Z,14.50
2018-05-12T06:03:36.734Z,14.60
2018-05-12T06:06:03.803Z,14.70
2018-05-12T06:08:30.041Z,14.70
2018-05-12T06:10:56.312Z,14.70
2018-05-12T06:13:23.295Z,14.70
2018-05-12T06:15:49.504Z,14.70
2018-05-12T06:18:15.723Z,14.70
2018-05-12T06:20:42.646Z,14.80
2018-05-12T06:23:08.990Z,14.80
2018-05-12T06:25:35.929Z,14.90
2018-05-12T06:28:02.154Z,14.80
2018-05-12T06:30:28.364Z,15.10
2018-05-12T06:32:55.102Z,15.40
2018-05-12T06:35:21.326Z,15.50
2018-05-12T06:37:47.540Z,15.90
2018-05-12T06:40:13.733Z,16.20
2018-05-12T06:42:40.668Z,16.60
2018-05-12T06:45:07.648Z,16.80
2018-05-12T06:47:33.866Z,16.80
2018-05-12T06:50:00.173Z,17.00
2018-05-12T06:52:27.165Z,17.20
2018-05-12T06:54:53.412Z,17.20
2018-05-12T06:57:19.649Z,17.40
2018-05-12T06:59:45.850Z,17.60
2018-05-12T07:02:12.048Z,17.70
2018-05-12T07:04:38.256Z,17.80
2018-05-12T07:07:04.460Z,17.90
2018-05-12T07:09:31.017Z,18.00
2018-05-12T07:11:57.278Z,18.20
2018-05-12T07:14:23.536Z,18.20
2018-05-12T07:16:49.785Z,18.30
2018-05-12T07:19:16.390Z,18.40
2018-05-12T07:21:42.646Z,18.50
2018-05-12T07:24:08.849Z,18.70
2018-05-12T07:26:35.104Z,18.80
2018-05-12T07:29:01.507Z,18.80
2018-05-12T07:31:28.005Z,19.20
2018-05-12T07:33:55.019Z,19.10
2018-05-12T07:36:21.232Z,19.00
2018-05-12T07:38:47.439Z,19.20
2018-05-12T07:41:13.718Z,19.40
2018-05-12T07:43:39.993Z,19.60
2018-05-12T07:46:06.212Z,19.60
2018-05-12T07:48:33.186Z,19.70
2018-05-12T07:50:59.443Z,19.60
2018-05-12T07:53:25.659Z,19.60
2018-05-12T07:55:52.051Z,19.60
2018-05-12T07:58:29.264Z,19.90
2018-05-12T08:00:55.526Z,19.90
2018-05-12T08:03:21.789Z,20.10
2018-05-12T08:05:48.754Z,20.20
2018-05-12T08:08:14.965Z,20.20
2018-05-12T08:10:41.929Z,20.60
2018-05-12T08:13:08.226Z,20.60
2018-05-12T08:15:34.444Z,20.60
2018-05-12T08:18:00.911Z,20.70
2018-05-12T08:20:27.878Z,20.60
2018-05-12T08:22:54.369Z,20.60
2018-05-12T08:25:20.569Z,20.70
2018-05-12T08:27:46.784Z,20.90
2018-05-12T08:30:13.133Z,20.90
2018-05-12T08:32:39.367Z,20.80
2018-05-12T08:35:05.587Z,21.00
2018-05-12T08:37:31.805Z,21.10
2018-05-12T08:39:58.020Z,21.20
2018-05-12T08:42:24.227Z,21.30
2018-05-12T08:44:51.214Z,21.40
2018-05-12T08:47:17.456Z,21.30
2018-05-12T08:49:43.668Z,21.50
2018-05-12T08:52:09.852Z,21.60
2018-05-12T08:54:36.810Z,21.70
2018-05-12T08:57:03.011Z,21.60
2018-05-12T08:59:29.225Z,21.70
2018-05-12T09:01:55.451Z,21.80
2018-05-12T09:04:21.687Z,22.00
2018-05-12T09:06:47.913Z,22.40
2018-05-12T09:09:14.133Z,22.40
2018-05-12T09:11:40.369Z,22.30
2018-05-12T09:14:07.108Z,22.50
2018-05-12T09:16:33.295Z,22.20
2018-05-12T09:18:59.508Z,22.40
2018-05-12T09:21:26.144Z,22.60
2018-05-12T09:23:52.577Z,22.70
2018-05-12T09:26:18.848Z,22.80
2018-05-12T09:28:45.125Z,22.80
2018-05-12T09:31:12.111Z,22.90
2018-05-12T09:33:38.352Z,22.90
2018-05-12T09:36:05.194Z,23.00
2018-05-12T09:38:31.394Z,23.00
2018-05-12T09:40:57.629Z,22.90
2018-05-12T09:43:23.844Z,22.90
2018-05-12T09:45:50.160Z,23.10
2018-05-12T09:48:17.836Z,23.20
2018-05-12T09:50:44.801Z,22.90
2018-05-12T09:53:11.027Z,22.90
2018-05-12T09:55:37.240Z,22.60
2018-05-12T09:58:04.254Z,23.00
2018-05-12T10:00:30.492Z,22.90
2018-05-12T10:02:57.452Z,23.30
2018-05-12T10:05:24.735Z,23.40
2018-05-12T10:07:50.949Z,23.40
2018-05-12T10:10:17.193Z,23.20
2018-05-12T10:12:43.483Z,22.60
2018-05-12T10:15:09.766Z,22.40
2018-05-12T10:17:36.009Z,22.50
2018-05-12T10:20:02.253Z,22.70
2018-05-12T10:22:28.462Z,23.00
2018-05-12T10:24:54.692Z,23.00
2018-05-12T10:27:20.911Z,22.80
2018-05-12T10:29:47.112Z,22.70
2018-05-12T10:32:14.070Z,22.40
2018-05-12T10:34:42.871Z,22.40
2018-05-12T10:37:09.072Z,22.40
2018-05-12T10:39:35.787Z,22.70
2018-05-12T10:42:02.844Z,23.10
2018-05-12T10:44:29.780Z,23.10
2018-05-12T10:46:56.014Z,23.00
2018-05-12T10:49:22.232Z,23.00
2018-05-12T10:51:48.501Z,23.20
2018-05-12T10:54:14.719Z,23.00
2018-05-12T10:56:41.674Z,22.90
2018-05-12T10:59:07.864Z,22.90
2018-05-12T11:01:34.107Z,22.90
2018-05-12T11:04:01.061Z,23.20
2018-05-12T11:06:27.999Z,23.10
2018-05-12T11:08:54.961Z,23.20
2018-05-12T11:11:21.949Z,23.30
2018-05-12T11:13:48.250Z,23.20
2018-05-12T11:16:15.417Z,23.30
2018-05-12T11:18:41.752Z,23.30
2018-05-12T11:21:08.224Z,23.20
2018-05-12T11:23:34.453Z,23.00
2018-05-12T11:26:00.652Z,23.10
2018-05-12T11:28:26.915Z,23.20
2018-05-12T11:30:53.149Z,23.30
2018-05-12T11:33:19.361Z,23.00
2018-05-12T11:35:46.340Z,23.00
2018-05-12T11:38:13.306Z,23.20
2018-05-12T11:40:40.302Z,23.40
2018-05-12T11:43:07.075Z,23.40
2018-05-12T11:45:34.093Z,23.00
2018-05-12T11:48:00.314Z,23.00
2018-05-12T11:50:26.544Z,23.20
2018-05-12T11:52:52.805Z,22.80
2018-05-12T11:55:19.829Z,23.30
2018-05-12T11:57:46.051Z,23.30
2018-05-12T12:00:12.277Z,23.40
2018-05-12T12:02:38.688Z,23.20
2018-05-12T12:05:04.981Z,23.00
2018-05-12T12:07:31.431Z,22.80
2018-05-12T12:09:57.766Z,23.00
2018-05-12T12:12:23.959Z,23.60
2018-05-12T12:14:50.385Z,23.90
2018-05-12T12:17:16.661Z,23.70
2018-05-12T12:19:42.865Z,23.30
2018-05-12T12:22:09.930Z,23.50
2018-05-12T12:24:36.177Z,23.40
2018-05-12T12:27:02.413Z,23.20
2018-05-12T12:29:28.637Z,23.30
2018-05-12T12:31:54.872Z,23.40
2018-05-12T12:34:21.528Z,23.70
2018-05-12T12:36:48.474Z,23.70
2018-05-12T12:39:14.697Z,23.70
2018-05-12T12:41:41.053Z,23.60
2018-05-12T12:44:07.249Z,23.60
2018-05-12T12:46:33.439Z,23.30
2018-05-12T12:49:00.415Z,23.50
2018-05-12T12:51:26.630Z,23.50
2018-05-12T12:53:52.965Z,23.20
2018-05-12T12:56:19.169Z,23.30
2018-05-12T12:58:46.137Z,23.50
2018-05-12T13:01:12.429Z,23.50
2018-05-12T13:03:38.672Z,23.50
2018-05-12T13:06:05.644Z,23.40
2018-05-12T13:08:31.883Z,23.40
2018-05-12T13:10:58.116Z,23.40
2018-05-12T13:13:24.308Z,22.90
2018-05-12T13:15:51.351Z,23.00
2018-05-12T13:18:18.237Z,23.00
2018-05-12T13:20:44.462Z,23.00
2018-05-12T13:23:10.685Z,22.80
2018-05-12T13:25:37.362Z,22.60
2018-05-12T13:28:03.679Z,22.60
2018-05-12T13:30:30.649Z,23.00
2018-05-12T13:32:56.954Z,23.00
2018-05-12T13:35:23.176Z,23.10
2018-05-12T13:37:49.367Z,23.10
2018-05-12T13:40:16.561Z,22.90
2018-05-12T13:42:42.944Z,22.90
2018-05-12T13:45:09.922Z,22.80
2018-05-12T13:47:36.148Z,22.80
2018-05-12T13:50:02.397Z,22.90
2018-05-12T13:52:28.674Z,23.10
2018-05-12T13:54:55.672Z,23.20
2018-05-12T13:57:21.918Z,23.30
2018-05-12T13:59:48.128Z,23.30
2018-05-12T14:02:14.332Z,23.30
2018-05-12T14:04:41.290Z,23.30
2018-05-12T14:07:07.488Z,23.30
2018-05-12T14:09:34.472Z,23.20
2018-05-12T14:12:00.812Z,23.20
2018-05-12T14:14:27.004Z,23.00
2018-05-12T14:16:53.960Z,22.80
2018-05-12T14:19:20.168Z,22.80
2018-05-12T14:21:47.135Z,23.10
2018-05-12T14:24:13.344Z,23.10
2018-05-12T14:26:40.441Z,23.40
2018-05-12T14:29:06.649Z,23.40
2018-05-12T14:31:32.844Z,23.40
2018-05-12T14:34:00.277Z,23.20
2018-05-12T14:36:26.483Z,23.20
2018-05-12T14:38:52.772Z,23.10
2018-05-12T14:41:19.740Z,22.90
2018-05-12T14:43:46.052Z,22.90
2018-05-12T14:46:12.285Z,22.90
2018-05-12T14:48:39.268Z,23.00
2018-05-12T14:51:05.502Z,23.00
2018-05-12T14:53:31.698Z,22.90
2018-05-12T14:55:57.924Z,22.90
2018-05-12T14:58:24.132Z,22.80
2018-05-12T15:00:51.161Z,22.80
2018-05-12T15:03:18.175Z,22.80
2018-05-12T15:05:44.417Z,22.80
2018-05-12T15:08:10.621Z,22.90
2018-05-12T15:10:36.926Z,23.00
2018-05-12T15:13:03.292Z,23.10
2018-05-12T15:15:29.745Z,23.10
2018-05-12T15:17:56.166Z,23.10
2018-05-12T15:20:22.389Z,22.90
2018-05-12T15:22:48.635Z,22.70
2018-05-12T15:25:14.853Z,22.60
2018-05-12T15:27:41.061Z,22.70
2018-05-12T15:30:07.286Z,22.70
2018-05-12T15:32:33.489Z,22.70
2018-05-12T15:35:00.440Z,22.70
2018-05-12T15:37:27.402Z,22.80
2018-05-12T15:39:53.982Z,22.70
2018-05-12T15:42:21.084Z,22.80
2018-05-12T15:44:47.294Z,22.80
2018-05-12T15:47:13.535Z,22.70
2018-05-12T15:49:40.505Z,22.60
2018-05-12T15:52:06.888Z,22.60
2018-05-12T15:54:33.091Z,22.60
2018-05-12T15:56:59.294Z,22.60
2018-05-12T15:59:25.570Z,22.60
2018-05-12T16:01:51.939Z,22.70
2018-05-12T16:04:18.912Z,22.80
2018-05-12T16:06:45.100Z,22.70
2018-05-12T16:09:12.064Z,22.70
2018-05-12T16:11:38.312Z,22.60
2018-05-12T16:14:04.663Z,22.70
2018-05-12T16:16:30.900Z,22.70
2018-05-12T16:18:57.108Z,22.70
2018-05-12T16:21:23.571Z,22.70
2018-05-12T16:23:49.804Z,22.60
2018-05-12T16:26:16.034Z,22.70
2018-05-12T16:28:42.407Z,22.70
2018-05-12T16:31:08.799Z,22.70
2018-05-12T16:33:35.032Z,22.60
2018-05-12T16:36:01.855Z,22.60
2018-05-12T16:38:28.076Z,22.50
2018-05-12T16:40:54.283Z,22.50
2018-05-12T16:43:20.531Z,22.50
2018-05-12T16:45:46.736Z,22.50
2018-05-12T16:48:12.965Z,22.50
2018-05-12T16:50:39.210Z,22.40
2018-05-12T16:53:05.500Z,22.30
2018-05-12T16:55:32.509Z,22.30
2018-05-12T16:57:59.148Z,22.30
2018-05-12T17:00:25.821Z,22.30
2018-05-12T17:02:52.807Z,22.00
2018-05-12T17:05:19.061Z,22.00
2018-05-12T17:07:45.298Z,22.00
2018-05-12T17:10:13.763Z,22.00
2018-05-12T17:12:39.998Z,22.10
2018-05-12T17:15:06.203Z,22.20
2018-05-12T17:17:32.427Z,22.30
2018-05-12T17:19:58.716Z,22.30
2018-05-12T17:22:24.916Z,22.40
2018-05-12T17:24:51.225Z,22.30
2018-05-12T17:27:17.550Z,22.20
2018-05-12T17:29:43.845Z,22.20
2018-05-12T17:32:10.000Z,22.10
2018-05-12T17:34:37.051Z,22.20
2018-05-12T17:37:03.252Z,22.20
2018-05-12T17:39:30.314Z,22.30
2018-05-12T17:41:57.288Z,22.20
2018-05-12T17:44:23.586Z,22.20
2018-05-12T17:46:49.772Z,22.10
2018-05-12T17:49:16.072Z,21.90
2018-05-12T17:51:42.312Z,21.90
2018-05-12T17:54:08.614Z,21.80
2018-05-12T17:56:35.217Z,21.80
2018-05-12T17:59:01.465Z,21.80
2018-05-12T18:01:28.437Z,21.60
2018-05-12T18:03:54.682Z,21.50
2018-05-12T18:06:20.897Z,21.50
2018-05-12T18:08:47.316Z,21.40
2018-05-12T18:11:13.542Z,21.30
2018-05-12T18:13:40.881Z,21.30
2018-05-12T18:16:08.112Z,21.30
2018-05-12T18:18:34.385Z,21.20
2018-05-12T18:21:00.623Z,21.20
2018-05-12T18:23:26.924Z,21.10
2018-05-12T18:25:54.184Z,21.00
2018-05-12T18:28:21.141Z,20.90
2018-05-12T18:30:48.249Z,20.90
2018-05-12T18:33:14.468Z,20.90
2018-05-12T18:35:40.672Z,20.90
2018-05-12T18:38:06.893Z,20.80
2018-05-12T18:40:33.096Z,20.70
2018-05-12T18:43:00.037Z,20.60
2018-05-12T18:45:27.008Z,20.50
2018-05-12T18:47:53.244Z,20.50
2018-05-12T18:50:20.672Z,20.50
2018-05-12T18:52:48.911Z,20.40
2018-05-12T18:55:15.277Z,20.40
2018-05-12T18:57:42.217Z,20.20
2018-05-12T19:00:09.171Z,20.10
2018-05-12T19:02:35.372Z,20.10
2018-05-12T19:05:01.585Z,20.00
2018-05-12T19:07:27.892Z,20.00
2018-05-12T19:09:54.100Z,19.90
2018-05-12T19:12:20.328Z,19.90
2018-05-12T19:14:47.104Z,19.90
2018-05-12T19:17:13.380Z,19.80
2018-05-12T19:19:40.492Z,19.70
2018-05-12T19:22:06.725Z,19.60
2018-05-12T19:24:32.953Z,19.60
2018-05-12T19:26:59.162Z,19.60
2018-05-12T19:29:25.400Z,19.50
2018-05-12T19:31:51.613Z,18.40
2018-05-12T19:34:18.275Z,17.70
2018-05-12T19:36:44.520Z,17.60
2018-05-12T19:39:11.043Z,17.60
2018-05-12T19:41:37.364Z,17.90
2018-05-12T19:44:03.677Z,18.20
2018-05-12T19:46:30.012Z,18.30
2018-05-12T19:48:56.322Z,18.40
2018-05-12T19:51:22.591Z,18.40
2018-05-12T19:53:49.192Z,18.50
2018-05-12T19:56:15.549Z,18.50
2018-05-12T19:58:42.523Z,18.50
2018-05-12T20:01:08.874Z,18.50
2018-05-12T20:03:35.085Z,18.50
2018-05-12T20:06:01.339Z,18.50
2018-05-12T20:08:28.446Z,18.40
2018-05-12T20:10:54.826Z,18.40
2018-05-12T20:13:21.791Z,18.40
2018-05-12T20:15:48.055Z,18.40
2018-05-12T20:18:15.560Z,18.40
2018-05-12T20:20:42.654Z,18.40
2018-05-12T20:23:09.037Z,18.40
2018-05-12T20:25:35.520Z,18.40
2018-05-12T20:28:02.212Z,18.40
2018-05-12T20:30:28.421Z,18.40
2018-05-12T20:32:54.629Z,18.40
2018-05-12T20:35:20.833Z,18.50
2018-05-12T20:37:47.214Z,18.50
2018-05-12T20:40:13.734Z,18.50
2018-05-12T20:42:40.132Z,18.60
2018-05-12T20:45:06.545Z,18.60
2018-05-12T20:47:33.512Z,18.60
2018-05-12T20:49:59.701Z,18.60
2018-05-12T20:52:26.013Z,18.50
2018-05-12T20:54:52.471Z,18.60
2018-05-12T20:57:19.685Z,18.50
2018-05-12T20:59:46.021Z,18.50
2018-05-12T21:02:12.300Z,18.50
2018-05-12T21:04:39.310Z,18.50
2018-05-12T21:07:05.725Z,18.50
2018-05-12T21:09:32.020Z,18.50
2018-05-12T21:11:58.956Z,18.50
2018-05-12T21:14:27.064Z,18.50
2018-05-12T21:16:53.440Z,18.50
2018-05-12T21:19:19.664Z,18.40
2018-05-12T21:21:45.912Z,18.40
2018-05-12T21:24:12.937Z,18.40
2018-05-12T21:26:39.255Z,18.40
2018-05-12T21:29:05.493Z,18.40
2018-05-12T21:31:32.020Z,18.50
2018-05-12T21:33:58.921Z,18.50
2018-05-12T21:36:26.429Z,18.40
2018-05-12T21:38:52.775Z,18.30
2018-05-12T21:41:20.189Z,18.20
2018-05-12T21:43:46.516Z,18.20
2018-05-12T21:46:12.832Z,18.20
2018-05-12T21:48:39.062Z,18.20
2018-05-12T21:51:05.288Z,18.10
2018-05-12T21:53:31.500Z,18.10
2018-05-12T21:55:58.537Z,18.10
2018-05-12T21:58:25.284Z,18.00
2018-05-12T22:00:52.284Z,18.00
2018-05-12T22:03:18.483Z,17.90
2018-05-12T22:05:44.661Z,17.90
2018-05-12T22:08:11.131Z,17.90
2018-05-12T22:10:37.955Z,17.70
2018-05-12T22:13:04.184Z,17.70
2018-05-12T22:15:30.646Z,17.80
2018-05-12T22:17:56.956Z,17.70
2018-05-12T22:20:24.071Z,17.60
2018-05-12T22:22:50.303Z,17.60
2018-05-12T22:25:16.511Z,17.60
2018-05-12T22:27:42.730Z,17.70
2018-05-12T22:30:08.944Z,17.60
2018-05-12T22:32:35.204Z,17.50
2018-05-12T22:35:01.407Z,17.60
2018-05-12T22:37:27.600Z,17.60
2018-05-12T22:39:54.025Z,17.50
2018-05-12T22:42:20.266Z,17.60
2018-05-12T22:44:46.476Z,17.50
2018-05-12T22:47:12.748Z,17.50
2018-05-12T22:49:39.245Z,17.40
2018-05-12T22:52:05.461Z,17.30
2018-05-12T22:54:32.025Z,17.30
2018-05-12T22:56:59.156Z,17.20
2018-05-12T22:59:25.385Z,17.20
2018-05-12T23:01:52.606Z,17.10
2018-05-12T23:04:18.869Z,17.10
2018-05-12T23:06:45.087Z,17.10
2018-05-12T23:09:12.225Z,17.10
2018-05-12T23:11:38.565Z,17.10
2018-05-12T23:14:04.773Z,17.10
2018-05-12T23:16:31.076Z,17.00
2018-05-12T23:18:57.332Z,17.00
2018-05-12T23:21:23.537Z,16.90
2018-05-12T23:23:50.511Z,16.90
2018-05-12T23:26:16.920Z,16.90
2018-05-12T23:28:43.280Z,16.80
2018-05-12T23:31:09.486Z,16.80
2018-05-12T23:33:35.713Z,16.70
2018-05-12T23:36:01.993Z,16.70
2018-05-12T23:38:28.289Z,16.60
2018-05-12T23:40:54.705Z,16.60
2018-05-12T23:43:22.420Z,16.60
2018-05-12T23:45:49.090Z,16.50
2018-05-12T23:48:16.044Z,16.50
2018-05-12T23:50:42.927Z,16.50
2018-05-12T23:53:09.296Z,16.50
2018-05-12T23:55:35.569Z,16.40
2018-05-12T23:58:02.111Z,16.40
